Seabourn Spirit — C6FR4 — position and weather

sailwx.info

Track history (hours):
 
Tides and Currents Weather Stations Pressure Air Temp Water Temp Dewpoint Dewpoint Depression Visibility Wind Speed Wind Dir Waves Ship Positions

Seabourn Spirit

Operator: Cunard Seabourn

Last reported at 2019-Jun-16 01:01 UTC. Time now 2019-Jun-16 01:26 UTC.
Position N 57°35' E 011°19'.

Length 133 m; draft 5.7 m.

Type: Ship. MMSI: 311083000.

Date/timePositionNaut miles runAvg speedWind from/ knotsBaromVisibWave heightAir tempDewpointWater temp
2019-Jun-16 01:01N 57°35' E 011°19'713.8
2019-Jun-16 00:30N 57°29' E 011°28'713.7
2019-Jun-16 00:01N 57°24' E 011°36'713.6
2019-Jun-15 23:30N 57°19' E 011°44'713.4
2019-Jun-15 23:00N 57°14' E 011°53'713.2
2019-Jun-15 22:30N 57°08' E 011°57'713.2
2019-Jun-15 21:56N 57°01' E 012°02'5113.1
2019-Jun-15 18:03N 56°12' E 012°27'114.5
2019-Jun-15 18:00N 56°11' E 012°28'714.6
2019-Jun-15 17:30N 56°06' E 012°35'815.7
2019-Jun-15 17:00N 55°59' E 012°42'714.4
2019-Jun-15 16:31N 55°51' E 012°42'714.1
2019-Jun-15 16:01N 55°45' E 012°40'3 6.8
2019-Jun-15 15:30N 55°42' E 012°36'0 0.0
2019-Jun-15 14:54N 55°42' E 012°36'0 0.0
2019-Jun-15 14:30N 55°42' E 012°36'0 0.0
2019-Jun-15 14:00N 55°42' E 012°36'0 0.0
2019-Jun-15 13:30N 55°42' E 012°36'0 0.0
2019-Jun-15 12:57N 55°42' E 012°36'0 0.0
2019-Jun-15 12:30N 55°42' E 012°36'0 0.0
2019-Jun-15 12:00N 55°42' E 012°36'0 0.0
2019-Jun-15 11:30N 55°42' E 012°36'0 0.0
2019-Jun-15 11:00N 55°42' E 012°36'0 0.0
2019-Jun-15 10:30N 55°42' E 012°36'0 0.0
2019-Jun-15 10:00N 55°42' E 012°36'0 0.0
2019-Jun-15 09:30N 55°42' E 012°36'0 0.0
2019-Jun-15 09:00N 55°42' E 012°36'0 0.0
2019-Jun-15 08:30N 55°42' E 012°36'0 0.0
2019-Jun-15 08:00N 55°42' E 012°36'0 0.0
2019-Jun-15 07:30N 55°42' E 012°36'0 0.0
2019-Jun-15 07:00N 55°42' E 012°36'0 0.0
2019-Jun-15 06:30N 55°42' E 012°36'0 0.0
2019-Jun-15 06:00N 55°42' E 012°36'0 0.2
2019-Jun-15 05:30N 55°42' E 012°36'3 7.0
2019-Jun-15 05:01N 55°40' E 012°41'714.5
2019-Jun-15 04:30N 55°32' E 012°42'714.1
2019-Jun-15 04:00N 55°25' E 012°41'611.4
2019-Jun-15 03:30N 55°20' E 012°40'811.3
2019-Jun-15 02:46N 55°16' E 012°52'312.8
2019-Jun-15 02:30N 55°16' E 012°58'612.6
2019-Jun-15 02:00N 55°15' E 013°10'812.9
2019-Jun-15 01:21N 55°15' E 013°24'1312.9
2019-Jun-15 00:20N 55°14' E 013°47'513.3
2019-Jun-14 23:59N 55°14' E 013°55'613.2
2019-Jun-14 23:30N 55°14' E 014°06'612.0
2019-Jun-14 23:00N 55°14' E 014°17'812.6
2019-Jun-14 22:23N 55°20' E 014°26'512.2
2019-Jun-14 21:56N 55°25' E 014°32'512.2
2019-Jun-14 21:30N 55°28' E 014°39'712.9
2019-Jun-14 21:00N 55°32' E 014°48'612.9
2019-Jun-14 20:30N 55°35' E 014°58'713.6
2019-Jun-14 20:00N 55°38' E 015°08'713.7
2019-Jun-14 19:30N 55°41' E 015°19'713.6
2019-Jun-14 19:00N 55°44' E 015°30'713.2
2019-Jun-14 18:30N 55°47' E 015°40'713.3
2019-Jun-14 18:00N 55°51' E 015°51'713.3
2019-Jun-14 17:30N 55°54' E 016°01'612.9
2019-Jun-14 17:00N 55°57' E 016°11'713.2
2019-Jun-14 16:30N 56°01' E 016°21'713.4
2019-Jun-14 16:00N 56°04' E 016°31'713.3
2019-Jun-14 15:30N 56°08' E 016°41'713.0
2019-Jun-14 15:00N 56°12' E 016°51'612.8
2019-Jun-14 14:30N 56°15' E 016°60'612.8
2019-Jun-14 14:00N 56°19' E 017°09'712.8
2019-Jun-14 13:27N 56°24' E 017°20'3313.3
2019-Jun-14 10:56N 56°43' E 018°09'6114.2
2019-Jun-14 06:36N 57°27' E 019°29'114.1
2019-Jun-14 06:31N 57°28' E 019°30'713.6
2019-Jun-14 06:00N 57°34' E 019°36'714.2
2019-Jun-14 05:30N 57°40' E 019°41'714.3
2019-Jun-14 04:59N 57°46' E 019°49'714.5
2019-Jun-14 04:30N 57°51' E 019°58'714.5
2019-Jun-14 04:00N 57°58' E 020°06'714.4
2019-Jun-14 03:30N 58°04' E 020°13'714.4
2019-Jun-14 03:00N 58°10' E 020°21'714.4
2019-Jun-14 02:30N 58°16' E 020°28'814.2
2019-Jun-14 01:57N 58°22' E 020°36'714.3
2019-Jun-14 01:28N 58°28' E 020°44'814.5
2019-Jun-14 00:55N 58°35' E 020°52'1114.3
2019-Jun-14 00:10N 58°44' E 021°03'414.2
2019-Jun-13 23:52N 58°47' E 021°08'614.2
2019-Jun-13 23:27N 58°52' E 021°14'2214.1
2019-Jun-13 21:54N 59°10' E 021°37'613.8
2019-Jun-13 21:30N 59°14' E 021°46'2713.8
2019-Jun-13 19:32N 59°31' E 022°27'714.1
2019-Jun-13 19:00N 59°33' E 022°41'714.1
2019-Jun-13 18:30N 59°34' E 022°55'714.0
2019-Jun-13 18:01N 59°34' E 023°09'714.0
2019-Jun-13 17:30N 59°34' E 023°23'1914.0
2019-Jun-13 16:08N 59°31' E 023°60'214.5
2019-Jun-13 16:00N 59°31' E 024°04'714.6
2019-Jun-13 15:30N 59°30' E 024°18'815.5
2019-Jun-13 15:00N 59°30' E 024°33'612.1
2019-Jun-13 14:30N 59°30' E 024°45'3 6.5
2019-Jun-13 13:59N 59°27' E 024°46'0 0.0
2019-Jun-13 13:29N 59°27' E 024°46'0 0.0
2019-Jun-13 12:59N 59°27' E 024°46'0 0.0
2019-Jun-13 12:29N 59°27' E 024°46'0 0.0
2019-Jun-13 11:59N 59°27' E 024°46'0 0.0
2019-Jun-13 11:29N 59°27' E 024°46'0 0.0
2019-Jun-13 10:59N 59°27' E 024°46'0 0.0
2019-Jun-13 10:29N 59°27' E 024°46'0 0.0
2019-Jun-13 09:59N 59°27' E 024°46'0 0.0
2019-Jun-13 09:29N 59°27' E 024°46'0 0.0
2019-Jun-13 08:59N 59°27' E 024°46'0 0.0
2019-Jun-13 08:29N 59°27' E 024°46'0 0.0
2019-Jun-13 08:01N 59°27' E 024°46'0 0.7
2019-Jun-13 07:31N 59°27' E 024°47'3 5.0
2019-Jun-13 07:00N 59°30' E 024°45'611.7
2019-Jun-13 06:30N 59°35' E 024°41'611.3
2019-Jun-13 06:00N 59°40' E 024°44'612.5
2019-Jun-13 05:30N 59°45' E 024°53'611.8
2019-Jun-13 05:01N 59°50' E 024°57'612.7
2019-Jun-13 04:30N 59°52' E 025°10'612.7
2019-Jun-13 04:00N 59°53' E 025°22'712.6
2019-Jun-13 03:28N 59°54' E 025°35'1412.6
2019-Jun-13 02:21N 59°58' E 026°03'512.6
2019-Jun-13 01:58N 59°59' E 026°12'612.7
2019-Jun-13 01:30N 60°00' E 026°24'612.6
2019-Jun-13 01:00N 60°01' E 026°36'612.9
2019-Jun-13 00:30N 60°00' E 026°49'613.0
2019-Jun-13 00:00N 59°59' E 027°01'612.3
2019-Jun-12 23:30N 60°02' E 027°12'612.6
2019-Jun-12 23:00N 60°06' E 027°23'612.8
2019-Jun-12 22:30N 60°09' E 027°34'612.7
2019-Jun-12 22:00N 60°12' E 027°45'612.9
2019-Jun-12 21:30N 60°11' E 027°58'713.7
2019-Jun-12 21:01N 60°09' E 028°11'713.1
2019-Jun-12 20:30N 60°05' E 028°23'713.1
2019-Jun-12 20:00N 60°03' E 028°35'713.3
2019-Jun-12 19:30N 60°03' E 028°48'713.4
2019-Jun-12 19:00N 60°02' E 029°02'1014.0
2019-Jun-12 18:17N 60°02' E 029°22'1211.5
2019-Jun-12 17:12N 59°59' E 029°46'310.3
2019-Jun-12 16:57N 59°57' E 029°50'410.1
2019-Jun-12 16:30N 59°56' E 029°59'4 9.0
2019-Jun-12 16:00N 59°54' E 030°07'3 6.0
2019-Jun-12 15:30N 59°54' E 030°13'3 5.5
2019-Jun-12 15:01N 59°56' E 030°17'0 0.7
2019-Jun-12 14:30N 59°56' E 030°17'0 0.0
2019-Jun-12 14:00N 59°56' E 030°17'0 0.0
2019-Jun-12 13:30N 59°56' E 030°17'0 0.0
2019-Jun-12 13:00N 59°56' E 030°17'0 0.0
2019-Jun-12 12:30N 59°56' E 030°17'0 0.0
2019-Jun-12 12:00N 59°56' E 030°17'0 0.0
2019-Jun-12 11:30N 59°56' E 030°17'0 0.0
2019-Jun-12 11:00N 59°56' E 030°17'0 0.0
2019-Jun-12 10:30N 59°56' E 030°17'0 0.0
2019-Jun-12 10:00N 59°56' E 030°17'0 0.0
2019-Jun-12 09:30N 59°56' E 030°17'0 0.0
2019-Jun-12 09:00N 59°56' E 030°17'0 0.0
2019-Jun-12 08:30N 59°56' E 030°17'0 0.0
2019-Jun-12 08:00N 59°56' E 030°17'0 0.0
2019-Jun-12 07:31N 59°56' E 030°17'0 0.0
2019-Jun-12 07:00N 59°56' E 030°17'0 0.0
2019-Jun-12 06:30N 59°56' E 030°17'0 0.0
2019-Jun-12 06:00N 59°56' E 030°17'0 0.0
2019-Jun-12 05:30N 59°56' E 030°17'0 0.0
2019-Jun-12 05:00N 59°56' E 030°17'0 0.0
2019-Jun-12 04:30N 59°56' E 030°17'0 0.0
2019-Jun-12 04:00N 59°56' E 030°17'0 0.0
2019-Jun-12 03:30N 59°56' E 030°17'0 0.0
2019-Jun-12 03:00N 59°56' E 030°17'0 0.0
2019-Jun-12 02:00N 59°56' E 030°17'0 0.0
2019-Jun-12 01:30N 59°56' E 030°17'0 0.0
2019-Jun-12 01:00N 59°56' E 030°17'0 0.0
2019-Jun-12 00:30N 59°56' E 030°17'0 0.0
2019-Jun-12 00:00N 59°56' E 030°17'0 0.0
2019-Jun-11 23:30N 59°56' E 030°17'0 0.0
2019-Jun-11 23:00N 59°56' E 030°17'0 0.0
2019-Jun-11 22:30N 59°56' E 030°17'0 0.0
2019-Jun-11 22:00N 59°56' E 030°17'0 0.0
2019-Jun-11 21:30N 59°56' E 030°17'0 0.0
2019-Jun-11 21:00N 59°56' E 030°17'0 0.0
2019-Jun-11 20:30N 59°56' E 030°17'0 0.0
2019-Jun-11 20:00N 59°56' E 030°17'0 0.0
2019-Jun-11 19:30N 59°56' E 030°17'0 0.0
2019-Jun-11 19:00N 59°56' E 030°17'0 0.0
2019-Jun-11 18:30N 59°56' E 030°17'0 0.0
2019-Jun-11 18:00N 59°56' E 030°17'0 0.0
2019-Jun-11 17:30N 59°56' E 030°17'0 0.0
2019-Jun-11 17:00N 59°56' E 030°17'0 0.0
2019-Jun-11 16:30N 59°56' E 030°17'0 0.0
2019-Jun-11 16:00N 59°56' E 030°17'0 0.0
2019-Jun-11 15:30N 59°56' E 030°17'0 0.0
2019-Jun-11 15:00N 59°56' E 030°17'0 0.0
2019-Jun-11 14:30N 59°56' E 030°17'0 0.0
2019-Jun-11 14:00N 59°56' E 030°17'0 0.0
2019-Jun-11 13:30N 59°56' E 030°17'0 0.0
2019-Jun-11 13:00N 59°56' E 030°17'0 0.0
2019-Jun-11 12:30N 59°56' E 030°17'0 0.0
2019-Jun-11 12:00N 59°56' E 030°17'0 0.0
2019-Jun-11 11:30N 59°56' E 030°17'0 0.0
2019-Jun-11 11:00N 59°56' E 030°17'0 0.0
2019-Jun-11 10:30N 59°56' E 030°17'0 0.0
2019-Jun-11 10:00N 59°56' E 030°17'0 0.0
2019-Jun-11 09:30N 59°56' E 030°17'0 0.0
2019-Jun-11 09:00N 59°56' E 030°17'0 0.0
2019-Jun-11 08:30N 59°56' E 030°17'0 0.0
2019-Jun-11 08:00N 59°56' E 030°17'0 0.0
2019-Jun-11 07:30N 59°56' E 030°17'0 0.0
2019-Jun-11 07:00N 59°56' E 030°17'0 0.0
2019-Jun-11 06:30N 59°56' E 030°17'0 0.0
2019-Jun-11 06:00N 59°56' E 030°17'1 1.9
2019-Jun-11 05:30N 59°55' E 030°16'3 5.9
2019-Jun-11 05:00N 59°53' E 030°12'3 6.7
2019-Jun-11 04:30N 59°54' E 030°05'510.0
2019-Jun-11 04:00N 59°56' E 029°56'610.5
2019-Jun-11 03:28N 59°59' E 029°46'1110.1
2019-Jun-11 02:20N 60°02' E 029°24'3 8.8
2019-Jun-11 02:00N 60°02' E 029°18'5 9.1
2019-Jun-11 01:30N 60°02' E 029°09'5 9.3
2019-Jun-11 01:00N 60°02' E 028°60'5 9.2
2019-Jun-11 00:30N 60°02' E 028°51'5 9.4
2019-Jun-11 00:00N 60°02' E 028°41'611.6
2019-Jun-10 23:30N 60°03' E 028°30'612.2
2019-Jun-10 23:00N 60°06' E 028°19'612.1
2019-Jun-10 22:30N 60°08' E 028°08'612.3
2019-Jun-10 22:00N 60°10' E 027°56'611.7
2019-Jun-10 21:30N 60°10' E 027°44'612.3
2019-Jun-10 21:00N 60°07' E 027°33'612.4
2019-Jun-10 20:30N 60°04' E 027°23'612.4
2019-Jun-10 20:00N 60°00' E 027°12'611.9
2019-Jun-10 19:30N 59°58' E 027°02'612.4
2019-Jun-10 19:00N 59°59' E 026°49'612.2
2019-Jun-10 18:30N 59°59' E 026°37'612.3
2019-Jun-10 18:00N 59°58' E 026°25'612.4
2019-Jun-10 17:30N 59°56' E 026°13'612.2
2019-Jun-10 17:00N 59°54' E 026°02'612.2
2019-Jun-10 16:30N 59°53' E 025°50'612.3
2019-Jun-10 16:00N 59°52' E 025°38'612.3
2019-Jun-10 15:30N 59°51' E 025°26'612.1
2019-Jun-10 15:00N 59°53' E 025°14'612.3
2019-Jun-10 14:30N 59°56' E 025°03'611.5
2019-Jun-10 14:00N 60°01' E 024°58'510.3
2019-Jun-10 13:30N 60°06' E 024°58'4 6.8
2019-Jun-10 12:58N 60°10' E 024°57'0 0.0
2019-Jun-10 12:28N 60°10' E 024°57'0 0.0
2019-Jun-10 11:58N 60°10' E 024°57'0 0.0
2019-Jun-10 11:28N 60°10' E 024°57'0 0.0
2019-Jun-10 10:58N 60°10' E 024°57'0 0.0
2019-Jun-10 10:25N 60°10' E 024°57'0 0.0
2019-Jun-10 09:58N 60°10' E 024°57'0 0.0
2019-Jun-10 09:25N 60°10' E 024°57'0 0.0
2019-Jun-10 08:58N 60°10' E 024°57'0 0.0
2019-Jun-10 08:28N 60°10' E 024°57'0 0.0
2019-Jun-10 07:58N 60°10' E 024°57'0 0.0
2019-Jun-10 07:28N 60°10' E 024°57'0 0.0
2019-Jun-10 06:58N 60°10' E 024°57'0 0.0
2019-Jun-10 06:28N 60°10' E 024°57'0 0.0
2019-Jun-10 05:58N 60°10' E 024°57'0 0.0
2019-Jun-10 05:28N 60°10' E 024°57'0 0.0
2019-Jun-10 04:58N 60°10' E 024°57'1 1.7
2019-Jun-10 04:30N 60°10' E 024°59'611.2
2019-Jun-10 04:00N 60°04' E 024°58'5 9.8
2019-Jun-10 03:30N 59°59' E 024°54'511.0
2019-Jun-10 03:00N 59°56' E 024°45'611.9
2019-Jun-10 02:30N 59°53' E 024°36'611.8
2019-Jun-10 02:00N 59°50' E 024°26'611.8
2019-Jun-10 01:28N 59°47' E 024°14'510.6
2019-Jun-10 00:57N 59°44' E 024°06'510.4
2019-Jun-10 00:30N 59°40' E 023°60'611.4
2019-Jun-10 00:00N 59°39' E 023°49'510.8
2019-Jun-09 23:30N 59°37' E 023°39'612.2
2019-Jun-09 23:00N 59°35' E 023°28'612.7
2019-Jun-09 22:30N 59°33' E 023°16'612.6
2019-Jun-09 22:00N 59°31' E 023°04'612.2
2019-Jun-09 21:30N 59°29' E 022°53'612.9
2019-Jun-09 21:00N 59°27' E 022°41'612.9
2019-Jun-09 20:30N 59°24' E 022°29'712.6
2019-Jun-09 19:58N 59°23' E 022°16'613.0
2019-Jun-09 19:30N 59°25' E 022°04'612.8
2019-Jun-09 19:00N 59°26' E 021°52'612.6
2019-Jun-09 18:30N 59°28' E 021°40'612.5
2019-Jun-09 18:00N 59°30' E 021°29'612.8
2019-Jun-09 17:30N 59°32' E 021°17'612.7
2019-Jun-09 17:01N 59°34' E 021°05'612.7
2019-Jun-09 16:31N 59°36' E 020°53'1212.7
2019-Jun-09 15:35N 59°40' E 020°31'112.2
2019-Jun-09 15:30N 59°41' E 020°30'1911.9
2019-Jun-09 13:53N 59°45' E 019°53'512.4
2019-Jun-09 13:28N 59°46' E 019°43'612.5
2019-Jun-09 13:00N 59°51' E 019°43'713.3
2019-Jun-09 12:30N 59°58' E 019°48'510.3
2019-Jun-09 12:00N 60°02' E 019°53'1 0.1
2019-Jun-09 02:18N 60°02' E 019°52'3 7.6
2019-Jun-09 01:54N 59°60' E 019°47'3 6.6
2019-Jun-09 01:31N 59°58' E 019°43'3 5.5
2019-Jun-09 01:00N 59°59' E 019°38'3 6.5
2019-Jun-09 00:30N 60°01' E 019°33'3 6.7
2019-Jun-09 00:00N 60°03' E 019°28'2 4.5
2019-Jun-08 23:30N 60°01' E 019°29'3 6.5
2019-Jun-08 23:00N 59°58' E 019°34'3 6.3
2019-Jun-08 22:30N 59°56' E 019°38'3 6.3
2019-Jun-08 22:00N 59°54' E 019°42'3 6.4
2019-Jun-08 21:30N 59°51' E 019°37'3 6.2
2019-Jun-08 20:59N 59°49' E 019°32'3 6.3
2019-Jun-08 20:30N 59°48' E 019°27'3 6.1
2019-Jun-08 20:00N 59°46' E 019°22'510.4
2019-Jun-08 19:30N 59°44' E 019°12'612.4
2019-Jun-08 18:59N 59°41' E 019°00'510.2
2019-Jun-08 18:30N 59°38' E 018°53'612.2
2019-Jun-08 18:00N 59°35' E 018°43'510.6
2019-Jun-08 17:30N 59°32' E 018°34'510.3
2019-Jun-08 16:59N 59°29' E 018°27'5 9.4
2019-Jun-08 16:30N 59°24' E 018°26'3 6.0
2019-Jun-08 16:00N 59°22' E 018°22'510.6
2019-Jun-08 15:31N 59°20' E 018°12'3 5.1
2019-Jun-08 15:00N 59°21' E 018°07'0 0.2
2019-Jun-08 14:30N 59°20' E 018°07'0 0.0
2019-Jun-08 14:00N 59°20' E 018°07'0 0.0
2019-Jun-08 13:30N 59°20' E 018°07'0 0.0
2019-Jun-08 13:00N 59°20' E 018°07'0 0.0
2019-Jun-08 12:30N 59°20' E 018°07'0 0.0
2019-Jun-08 12:00N 59°20' E 018°07'0 0.0
2019-Jun-08 11:30N 59°20' E 018°07'0 0.0
2019-Jun-08 11:00N 59°20' E 018°07'0 0.0
2019-Jun-08 10:30N 59°20' E 018°07'0 0.0
2019-Jun-08 10:00N 59°20' E 018°07'0 0.0
2019-Jun-08 09:30N 59°20' E 018°07'0 0.0
2019-Jun-08 09:00N 59°20' E 018°07'0 0.0
2019-Jun-08 08:30N 59°20' E 018°07'0 0.0
2019-Jun-08 08:00N 59°20' E 018°07'0 0.0
2019-Jun-08 07:30N 59°20' E 018°07'0 0.0
2019-Jun-08 07:00N 59°20' E 018°07'0 0.0
2019-Jun-08 06:30N 59°20' E 018°07'0 0.0
2019-Jun-08 06:00N 59°20' E 018°07'0 0.0
2019-Jun-08 05:30N 59°20' E 018°07'0 0.0
2019-Jun-08 05:00N 59°20' E 018°07'0 0.0
2019-Jun-08 04:30N 59°20' E 018°07'0 0.0
2019-Jun-08 04:00N 59°20' E 018°07'0 0.0
2019-Jun-08 03:30N 59°20' E 018°07'0 0.0
2019-Jun-08 03:00N 59°20' E 018°07'0 0.0
2019-Jun-08 02:30N 59°20' E 018°07'0 0.0
2019-Jun-08 02:00N 59°20' E 018°07'0 0.0
2019-Jun-08 01:30N 59°20' E 018°07'0 0.0
2019-Jun-08 01:00N 59°20' E 018°07'0 0.0
2019-Jun-08 00:30N 59°20' E 018°07'0 0.0
2019-Jun-08 00:00N 59°20' E 018°07'0 0.0
2019-Jun-07 23:30N 59°20' E 018°07'0 0.0
2019-Jun-07 23:00N 59°20' E 018°07'0 0.0
2019-Jun-07 22:30N 59°20' E 018°07'0 0.0
2019-Jun-07 22:00N 59°20' E 018°07'0 0.0
2019-Jun-07 21:30N 59°20' E 018°07'0 0.0
2019-Jun-07 21:00N 59°20' E 018°07'0 0.0
2019-Jun-07 20:30N 59°20' E 018°07'0 0.0
2019-Jun-07 20:00N 59°20' E 018°07'0 0.0
2019-Jun-07 19:30N 59°20' E 018°07'0 0.0
2019-Jun-07 19:00N 59°20' E 018°07'0 0.0
2019-Jun-07 18:30N 59°20' E 018°07'0 0.0
2019-Jun-07 18:00N 59°20' E 018°07'0 0.0
2019-Jun-07 17:30N 59°20' E 018°07'0 0.0
2019-Jun-07 17:00N 59°20' E 018°07'0 0.0
2019-Jun-07 16:30N 59°20' E 018°07'0 0.0
2019-Jun-07 16:00N 59°20' E 018°07'0 0.0
2019-Jun-07 15:30N 59°20' E 018°07'0 0.0
2019-Jun-07 15:00N 59°20' E 018°07'0 0.0
2019-Jun-07 14:30N 59°20' E 018°07'0 0.0
2019-Jun-07 14:00N 59°20' E 018°07'0 0.0
2019-Jun-07 13:30N 59°20' E 018°07'0 0.0
2019-Jun-07 13:00N 59°20' E 018°07'0 0.0
2019-Jun-07 12:30N 59°20' E 018°07'0 0.0
2019-Jun-07 12:00N 59°20' E 018°07'0 0.0
2019-Jun-07 11:30N 59°20' E 018°07'0 0.0
2019-Jun-07 11:00N 59°20' E 018°07'0 0.1
2019-Jun-07 10:30N 59°21' E 018°07'3 6.7
2019-Jun-07 10:00N 59°21' E 018°14'510.3
2019-Jun-07 09:30N 59°22' E 018°24'3 5.1
2019-Jun-07 09:00N 59°24' E 018°26'6 9.6
2019-Jun-07 08:24N 59°30' E 018°28'4 9.8
2019-Jun-07 08:00N 59°33' E 018°34'5 9.8
2019-Jun-07 07:30N 59°35' E 018°43'612.0
2019-Jun-07 07:00N 59°38' E 018°52'510.0
2019-Jun-07 06:30N 59°41' E 019°00'612.6
2019-Jun-07 06:00N 59°44' E 019°12'612.6
2019-Jun-07 05:30N 59°46' E 019°23'510.9
2019-Jun-07 05:00N 59°47' E 019°34'511.0
2019-Jun-07 04:30N 59°48' E 019°45'611.9
2019-Jun-07 04:00N 59°43' E 019°53'812.0
2019-Jun-07 03:19N 59°38' E 020°05'2511.6
2019-Jun-07 01:07N 59°32' E 020°54'212.5
2019-Jun-07 01:00N 59°32' E 020°57'612.4
2019-Jun-07 00:31N 59°30' E 021°08'611.7
2019-Jun-07 00:00N 59°28' E 021°19'612.0
2019-Jun-06 23:30N 59°27' E 021°31'612.4
2019-Jun-06 23:00N 59°28' E 021°43'612.6
2019-Jun-06 22:30N 59°28' E 021°56'612.7
2019-Jun-06 22:00N 59°28' E 022°08'612.1
2019-Jun-06 21:31N 59°28' E 022°20'612.4
2019-Jun-06 21:00N 59°32' E 022°30'612.7
2019-Jun-06 20:30N 59°33' E 022°42'612.6
2019-Jun-06 20:00N 59°35' E 022°54'612.4
2019-Jun-06 19:30N 59°37' E 023°06'612.7
2019-Jun-06 19:00N 59°38' E 023°18'612.6
2019-Jun-06 18:30N 59°40' E 023°30'612.4
2019-Jun-06 18:00N 59°42' E 023°42'612.5
2019-Jun-06 17:29N 59°43' E 023°54'612.8
2019-Jun-06 17:00N 59°45' E 024°06'613.0
2019-Jun-06 16:30N 59°47' E 024°18'612.3
2019-Jun-06 16:00N 59°50' E 024°29'612.2
2019-Jun-06 15:30N 59°53' E 024°39'612.6
2019-Jun-06 15:00N 59°57' E 024°49'612.0
2019-Jun-06 14:30N 60°01' E 024°57'611.4
2019-Jun-06 14:00N 60°07' E 024°59'3 5.6
2019-Jun-06 13:29N 60°10' E 024°58'0 0.0
2019-Jun-06 12:59N 60°10' E 024°58'0 0.0
2019-Jun-06 12:29N 60°10' E 024°58'0 0.0
2019-Jun-06 11:59N 60°10' E 024°58'0 0.0
2019-Jun-06 11:29N 60°10' E 024°58'0 0.0
2019-Jun-06 10:59N 60°10' E 024°58'0 0.0
2019-Jun-06 10:30N 60°10' E 024°58'0 0.0
2019-Jun-06 09:59N 60°10' E 024°58'0 0.0
2019-Jun-06 09:29N 60°10' E 024°58'0 0.0
2019-Jun-06 08:59N 60°10' E 024°58'0 0.0
2019-Jun-06 08:29N 60°10' E 024°58'0 0.0
2019-Jun-06 07:59N 60°10' E 024°58'0 0.0
2019-Jun-06 07:29N 60°10' E 024°58'0 0.5
2019-Jun-06 07:01N 60°10' E 024°58'5 9.1
2019-Jun-06 06:30N 60°05' E 024°58'611.4
2019-Jun-06 06:00N 59°60' E 024°59'510.1
2019-Jun-06 05:30N 59°56' E 025°06'612.3
2019-Jun-06 05:00N 59°56' E 025°18'612.3
2019-Jun-06 04:30N 59°55' E 025°31'612.2
2019-Jun-06 04:00N 59°55' E 025°43'612.3
2019-Jun-06 03:30N 59°57' E 025°55'712.4
2019-Jun-06 02:56N 59°58' E 026°08'512.1
2019-Jun-06 02:30N 59°60' E 026°19'612.2
2019-Jun-06 02:00N 60°01' E 026°30'611.9
2019-Jun-06 01:30N 60°01' E 026°42'  
Track history (hours):
 
Tides and Currents Weather Stations Pressure Air Temp Water Temp Dewpoint Dewpoint Depression Visibility Wind Speed Wind Dir Waves Ship Positions

Seabourn Spirit

Operator: Cunard Seabourn

Last reported at 2019-Jun-16 01:01 UTC. Time now 2019-Jun-16 01:26 UTC.
Position N 57°35' E 011°19'.

Length 133 m; draft 5.7 m.

Type: Ship. MMSI: 311083000.

Date/timePositionNaut miles runAvg speedWind from/ knotsBaromVisibWave heightAir tempDewpointWater temp
2019-Jun-16 01:01N 57°35' E 011°19'713.8
2019-Jun-16 00:30N 57°29' E 011°28'713.7
2019-Jun-16 00:01N 57°24' E 011°36'713.6
2019-Jun-15 23:30N 57°19' E 011°44'713.4
2019-Jun-15 23:00N 57°14' E 011°53'713.2
2019-Jun-15 22:30N 57°08' E 011°57'713.2
2019-Jun-15 21:56N 57°01' E 012°02'5113.1
2019-Jun-15 18:03N 56°12' E 012°27'114.5
2019-Jun-15 18:00N 56°11' E 012°28'714.6
2019-Jun-15 17:30N 56°06' E 012°35'815.7
2019-Jun-15 17:00N 55°59' E 012°42'714.4
2019-Jun-15 16:31N 55°51' E 012°42'714.1
2019-Jun-15 16:01N 55°45' E 012°40'3 6.8
2019-Jun-15 15:30N 55°42' E 012°36'0 0.0
2019-Jun-15 14:54N 55°42' E 012°36'0 0.0
2019-Jun-15 14:30N 55°42' E 012°36'0 0.0
2019-Jun-15 14:00N 55°42' E 012°36'0 0.0
2019-Jun-15 13:30N 55°42' E 012°36'0 0.0
2019-Jun-15 12:57N 55°42' E 012°36'0 0.0
2019-Jun-15 12:30N 55°42' E 012°36'0 0.0
2019-Jun-15 12:00N 55°42' E 012°36'0 0.0
2019-Jun-15 11:30N 55°42' E 012°36'0 0.0
2019-Jun-15 11:00N 55°42' E 012°36'0 0.0
2019-Jun-15 10:30N 55°42' E 012°36'0 0.0
2019-Jun-15 10:00N 55°42' E 012°36'0 0.0
2019-Jun-15 09:30N 55°42' E 012°36'0 0.0
2019-Jun-15 09:00N 55°42' E 012°36'0 0.0
2019-Jun-15 08:30N 55°42' E 012°36'0 0.0
2019-Jun-15 08:00N 55°42' E 012°36'0 0.0
2019-Jun-15 07:30N 55°42' E 012°36'0 0.0
2019-Jun-15 07:00N 55°42' E 012°36'0 0.0
2019-Jun-15 06:30N 55°42' E 012°36'0 0.0
2019-Jun-15 06:00N 55°42' E 012°36'0 0.2
2019-Jun-15 05:30N 55°42' E 012°36'3 7.0
2019-Jun-15 05:01N 55°40' E 012°41'714.5
2019-Jun-15 04:30N 55°32' E 012°42'714.1
2019-Jun-15 04:00N 55°25' E 012°41'611.4
2019-Jun-15 03:30N 55°20' E 012°40'811.3
2019-Jun-15 02:46N 55°16' E 012°52'312.8
2019-Jun-15 02:30N 55°16' E 012°58'612.6
2019-Jun-15 02:00N 55°15' E 013°10'812.9
2019-Jun-15 01:21N 55°15' E 013°24'1312.9
2019-Jun-15 00:20N 55°14' E 013°47'513.3
2019-Jun-14 23:59N 55°14' E 013°55'613.2
2019-Jun-14 23:30N 55°14' E 014°06'612.0
2019-Jun-14 23:00N 55°14' E 014°17'812.6
2019-Jun-14 22:23N 55°20' E 014°26'512.2
2019-Jun-14 21:56N 55°25' E 014°32'512.2
2019-Jun-14 21:30N 55°28' E 014°39'712.9
2019-Jun-14 21:00N 55°32' E 014°48'612.9
2019-Jun-14 20:30N 55°35' E 014°58'713.6
2019-Jun-14 20:00N 55°38' E 015°08'713.7
2019-Jun-14 19:30N 55°41' E 015°19'713.6
2019-Jun-14 19:00N 55°44' E 015°30'713.2
2019-Jun-14 18:30N 55°47' E 015°40'713.3
2019-Jun-14 18:00N 55°51' E 015°51'713.3
2019-Jun-14 17:30N 55°54' E 016°01'612.9
2019-Jun-14 17:00N 55°57' E 016°11'713.2
2019-Jun-14 16:30N 56°01' E 016°21'713.4
2019-Jun-14 16:00N 56°04' E 016°31'713.3
2019-Jun-14 15:30N 56°08' E 016°41'713.0
2019-Jun-14 15:00N 56°12' E 016°51'612.8
2019-Jun-14 14:30N 56°15' E 016°60'612.8
2019-Jun-14 14:00N 56°19' E 017°09'712.8
2019-Jun-14 13:27N 56°24' E 017°20'3313.3
2019-Jun-14 10:56N 56°43' E 018°09'6114.2
2019-Jun-14 06:36N 57°27' E 019°29'114.1
2019-Jun-14 06:31N 57°28' E 019°30'713.6
2019-Jun-14 06:00N 57°34' E 019°36'714.2
2019-Jun-14 05:30N 57°40' E 019°41'714.3
2019-Jun-14 04:59N 57°46' E 019°49'714.5
2019-Jun-14 04:30N 57°51' E 019°58'714.5
2019-Jun-14 04:00N 57°58' E 020°06'714.4
2019-Jun-14 03:30N 58°04' E 020°13'714.4
2019-Jun-14 03:00N 58°10' E 020°21'714.4
2019-Jun-14 02:30N 58°16' E 020°28'814.2
2019-Jun-14 01:57N 58°22' E 020°36'714.3
2019-Jun-14 01:28N 58°28' E 020°44'814.5
2019-Jun-14 00:55N 58°35' E 020°52'1114.3
2019-Jun-14 00:10N 58°44' E 021°03'414.2
2019-Jun-13 23:52N 58°47' E 021°08'614.2
2019-Jun-13 23:27N 58°52' E 021°14'2214.1
2019-Jun-13 21:54N 59°10' E 021°37'613.8
2019-Jun-13 21:30N 59°14' E 021°46'2713.8
2019-Jun-13 19:32N 59°31' E 022°27'714.1
2019-Jun-13 19:00N 59°33' E 022°41'714.1
2019-Jun-13 18:30N 59°34' E 022°55'714.0
2019-Jun-13 18:01N 59°34' E 023°09'714.0
2019-Jun-13 17:30N 59°34' E 023°23'1914.0
2019-Jun-13 16:08N 59°31' E 023°60'214.5
2019-Jun-13 16:00N 59°31' E 024°04'714.6
2019-Jun-13 15:30N 59°30' E 024°18'815.5
2019-Jun-13 15:00N 59°30' E 024°33'612.1
2019-Jun-13 14:30N 59°30' E 024°45'3 6.5
2019-Jun-13 13:59N 59°27' E 024°46'0 0.0
2019-Jun-13 13:29N 59°27' E 024°46'0 0.0
2019-Jun-13 12:59N 59°27' E 024°46'0 0.0
2019-Jun-13 12:29N 59°27' E 024°46'0 0.0
2019-Jun-13 11:59N 59°27' E 024°46'0 0.0
2019-Jun-13 11:29N 59°27' E 024°46'0 0.0
2019-Jun-13 10:59N 59°27' E 024°46'0 0.0
2019-Jun-13 10:29N 59°27' E 024°46'0 0.0
2019-Jun-13 09:59N 59°27' E 024°46'0 0.0
2019-Jun-13 09:29N 59°27' E 024°46'0 0.0
2019-Jun-13 08:59N 59°27' E 024°46'0 0.0
2019-Jun-13 08:29N 59°27' E 024°46'0 0.0
2019-Jun-13 08:01N 59°27' E 024°46'0 0.7
2019-Jun-13 07:31N 59°27' E 024°47'3 5.0
2019-Jun-13 07:00N 59°30' E 024°45'611.7
2019-Jun-13 06:30N 59°35' E 024°41'611.3
2019-Jun-13 06:00N 59°40' E 024°44'612.5
2019-Jun-13 05:30N 59°45' E 024°53'611.8
2019-Jun-13 05:01N 59°50' E 024°57'612.7
2019-Jun-13 04:30N 59°52' E 025°10'612.7
2019-Jun-13 04:00N 59°53' E 025°22'712.6
2019-Jun-13 03:28N 59°54' E 025°35'1412.6
2019-Jun-13 02:21N 59°58' E 026°03'512.6
2019-Jun-13 01:58N 59°59' E 026°12'612.7
2019-Jun-13 01:30N 60°00' E 026°24'612.6
2019-Jun-13 01:00N 60°01' E 026°36'612.9
2019-Jun-13 00:30N 60°00' E 026°49'613.0
2019-Jun-13 00:00N 59°59' E 027°01'612.3
2019-Jun-12 23:30N 60°02' E 027°12'612.6
2019-Jun-12 23:00N 60°06' E 027°23'612.8
2019-Jun-12 22:30N 60°09' E 027°34'612.7
2019-Jun-12 22:00N 60°12' E 027°45'612.9
2019-Jun-12 21:30N 60°11' E 027°58'713.7
2019-Jun-12 21:01N 60°09' E 028°11'713.1
2019-Jun-12 20:30N 60°05' E 028°23'713.1
2019-Jun-12 20:00N 60°03' E 028°35'713.3
2019-Jun-12 19:30N 60°03' E 028°48'713.4
2019-Jun-12 19:00N 60°02' E 029°02'1014.0
2019-Jun-12 18:17N 60°02' E 029°22'1211.5
2019-Jun-12 17:12N 59°59' E 029°46'310.3
2019-Jun-12 16:57N 59°57' E 029°50'410.1
2019-Jun-12 16:30N 59°56' E 029°59'4 9.0
2019-Jun-12 16:00N 59°54' E 030°07'3 6.0
2019-Jun-12 15:30N 59°54' E 030°13'3 5.5
2019-Jun-12 15:01N 59°56' E 030°17'0 0.7
2019-Jun-12 14:30N 59°56' E 030°17'0 0.0
2019-Jun-12 14:00N 59°56' E 030°17'0 0.0
2019-Jun-12 13:30N 59°56' E 030°17'0 0.0
2019-Jun-12 13:00N 59°56' E 030°17'0 0.0
2019-Jun-12 12:30N 59°56' E 030°17'0 0.0
2019-Jun-12 12:00N 59°56' E 030°17'0 0.0
2019-Jun-12 11:30N 59°56' E 030°17'0 0.0
2019-Jun-12 11:00N 59°56' E 030°17'0 0.0
2019-Jun-12 10:30N 59°56' E 030°17'0 0.0
2019-Jun-12 10:00N 59°56' E 030°17'0 0.0
2019-Jun-12 09:30N 59°56' E 030°17'0 0.0
2019-Jun-12 09:00N 59°56' E 030°17'0 0.0
2019-Jun-12 08:30N 59°56' E 030°17'0 0.0
2019-Jun-12 08:00N 59°56' E 030°17'0 0.0
2019-Jun-12 07:31N 59°56' E 030°17'0 0.0
2019-Jun-12 07:00N 59°56' E 030°17'0 0.0
2019-Jun-12 06:30N 59°56' E 030°17'0 0.0
2019-Jun-12 06:00N 59°56' E 030°17'0 0.0
2019-Jun-12 05:30N 59°56' E 030°17'0 0.0
2019-Jun-12 05:00N 59°56' E 030°17'0 0.0
2019-Jun-12 04:30N 59°56' E 030°17'0 0.0
2019-Jun-12 04:00N 59°56' E 030°17'0 0.0
2019-Jun-12 03:30N 59°56' E 030°17'0 0.0
2019-Jun-12 03:00N 59°56' E 030°17'0 0.0
2019-Jun-12 02:00N 59°56' E 030°17'0 0.0
2019-Jun-12 01:30N 59°56' E 030°17'0 0.0
2019-Jun-12 01:00N 59°56' E 030°17'0 0.0
2019-Jun-12 00:30N 59°56' E 030°17'0 0.0
2019-Jun-12 00:00N 59°56' E 030°17'0 0.0
2019-Jun-11 23:30N 59°56' E 030°17'0 0.0
2019-Jun-11 23:00N 59°56' E 030°17'0 0.0
2019-Jun-11 22:30N 59°56' E 030°17'0 0.0
2019-Jun-11 22:00N 59°56' E 030°17'0 0.0
2019-Jun-11 21:30N 59°56' E 030°17'0 0.0
2019-Jun-11 21:00N 59°56' E 030°17'0 0.0
2019-Jun-11 20:30N 59°56' E 030°17'0 0.0
2019-Jun-11 20:00N 59°56' E 030°17'0 0.0
2019-Jun-11 19:30N 59°56' E 030°17'0 0.0
2019-Jun-11 19:00N 59°56' E 030°17'0 0.0
2019-Jun-11 18:30N 59°56' E 030°17'0 0.0
2019-Jun-11 18:00N 59°56' E 030°17'0 0.0
2019-Jun-11 17:30N 59°56' E 030°17'0 0.0
2019-Jun-11 17:00N 59°56' E 030°17'0 0.0
2019-Jun-11 16:30N 59°56' E 030°17'0 0.0
2019-Jun-11 16:00N 59°56' E 030°17'0 0.0
2019-Jun-11 15:30N 59°56' E 030°17'0 0.0
2019-Jun-11 15:00N 59°56' E 030°17'0 0.0
2019-Jun-11 14:30N 59°56' E 030°17'0 0.0
2019-Jun-11 14:00N 59°56' E 030°17'0 0.0
2019-Jun-11 13:30N 59°56' E 030°17'0 0.0
2019-Jun-11 13:00N 59°56' E 030°17'0 0.0
2019-Jun-11 12:30N 59°56' E 030°17'0 0.0
2019-Jun-11 12:00N 59°56' E 030°17'0 0.0
2019-Jun-11 11:30N 59°56' E 030°17'0 0.0
2019-Jun-11 11:00N 59°56' E 030°17'0 0.0
2019-Jun-11 10:30N 59°56' E 030°17'0 0.0
2019-Jun-11 10:00N 59°56' E 030°17'0 0.0
2019-Jun-11 09:30N 59°56' E 030°17'0 0.0
2019-Jun-11 09:00N 59°56' E 030°17'0 0.0
2019-Jun-11 08:30N 59°56' E 030°17'0 0.0
2019-Jun-11 08:00N 59°56' E 030°17'0 0.0
2019-Jun-11 07:30N 59°56' E 030°17'0 0.0
2019-Jun-11 07:00N 59°56' E 030°17'0 0.0
2019-Jun-11 06:30N 59°56' E 030°17'0 0.0
2019-Jun-11 06:00N 59°56' E 030°17'1 1.9
2019-Jun-11 05:30N 59°55' E 030°16'3 5.9
2019-Jun-11 05:00N 59°53' E 030°12'3 6.7
2019-Jun-11 04:30N 59°54' E 030°05'510.0
2019-Jun-11 04:00N 59°56' E 029°56'610.5
2019-Jun-11 03:28N 59°59' E 029°46'1110.1
2019-Jun-11 02:20N 60°02' E 029°24'3 8.8
2019-Jun-11 02:00N 60°02' E 029°18'5 9.1
2019-Jun-11 01:30N 60°02' E 029°09'5 9.3
2019-Jun-11 01:00N 60°02' E 028°60'5 9.2
2019-Jun-11 00:30N 60°02' E 028°51'5 9.4
2019-Jun-11 00:00N 60°02' E 028°41'611.6
2019-Jun-10 23:30N 60°03' E 028°30'612.2
2019-Jun-10 23:00N 60°06' E 028°19'612.1
2019-Jun-10 22:30N 60°08' E 028°08'612.3
2019-Jun-10 22:00N 60°10' E 027°56'611.7
2019-Jun-10 21:30N 60°10' E 027°44'612.3
2019-Jun-10 21:00N 60°07' E 027°33'612.4
2019-Jun-10 20:30N 60°04' E 027°23'612.4
2019-Jun-10 20:00N 60°00' E 027°12'611.9
2019-Jun-10 19:30N 59°58' E 027°02'612.4
2019-Jun-10 19:00N 59°59' E 026°49'612.2
2019-Jun-10 18:30N 59°59' E 026°37'612.3
2019-Jun-10 18:00N 59°58' E 026°25'612.4
2019-Jun-10 17:30N 59°56' E 026°13'612.2
2019-Jun-10 17:00N 59°54' E 026°02'612.2
2019-Jun-10 16:30N 59°53' E 025°50'612.3
2019-Jun-10 16:00N 59°52' E 025°38'612.3
2019-Jun-10 15:30N 59°51' E 025°26'612.1
2019-Jun-10 15:00N 59°53' E 025°14'612.3
2019-Jun-10 14:30N 59°56' E 025°03'611.5
2019-Jun-10 14:00N 60°01' E 024°58'510.3
2019-Jun-10 13:30N 60°06' E 024°58'4 6.8
2019-Jun-10 12:58N 60°10' E 024°57'0 0.0
2019-Jun-10 12:28N 60°10' E 024°57'0 0.0
2019-Jun-10 11:58N 60°10' E 024°57'0 0.0
2019-Jun-10 11:28N 60°10' E 024°57'0 0.0
2019-Jun-10 10:58N 60°10' E 024°57'0 0.0
2019-Jun-10 10:25N 60°10' E 024°57'0 0.0
2019-Jun-10 09:58N 60°10' E 024°57'0 0.0
2019-Jun-10 09:25N 60°10' E 024°57'0 0.0
2019-Jun-10 08:58N 60°10' E 024°57'0 0.0
2019-Jun-10 08:28N 60°10' E 024°57'0 0.0
2019-Jun-10 07:58N 60°10' E 024°57'0 0.0
2019-Jun-10 07:28N 60°10' E 024°57'0 0.0
2019-Jun-10 06:58N 60°10' E 024°57'0 0.0
2019-Jun-10 06:28N 60°10' E 024°57'0 0.0
2019-Jun-10 05:58N 60°10' E 024°57'0 0.0
2019-Jun-10 05:28N 60°10' E 024°57'0 0.0
2019-Jun-10 04:58N 60°10' E 024°57'1 1.7
2019-Jun-10 04:30N 60°10' E 024°59'611.2
2019-Jun-10 04:00N 60°04' E 024°58'5 9.8
2019-Jun-10 03:30N 59°59' E 024°54'511.0
2019-Jun-10 03:00N 59°56' E 024°45'611.9
2019-Jun-10 02:30N 59°53' E 024°36'611.8
2019-Jun-10 02:00N 59°50' E 024°26'611.8
2019-Jun-10 01:28N 59°47' E 024°14'510.6
2019-Jun-10 00:57N 59°44' E 024°06'510.4
2019-Jun-10 00:30N 59°40' E 023°60'611.4
2019-Jun-10 00:00N 59°39' E 023°49'510.8
2019-Jun-09 23:30N 59°37' E 023°39'612.2
2019-Jun-09 23:00N 59°35' E 023°28'612.7
2019-Jun-09 22:30N 59°33' E 023°16'612.6
2019-Jun-09 22:00N 59°31' E 023°04'612.2
2019-Jun-09 21:30N 59°29' E 022°53'612.9
2019-Jun-09 21:00N 59°27' E 022°41'612.9
2019-Jun-09 20:30N 59°24' E 022°29'712.6
2019-Jun-09 19:58N 59°23' E 022°16'613.0
2019-Jun-09 19:30N 59°25' E 022°04'612.8
2019-Jun-09 19:00N 59°26' E 021°52'612.6
2019-Jun-09 18:30N 59°28' E 021°40'612.5
2019-Jun-09 18:00N 59°30' E 021°29'612.8
2019-Jun-09 17:30N 59°32' E 021°17'612.7
2019-Jun-09 17:01N 59°34' E 021°05'612.7
2019-Jun-09 16:31N 59°36' E 020°53'1212.7
2019-Jun-09 15:35N 59°40' E 020°31'112.2
2019-Jun-09 15:30N 59°41' E 020°30'1911.9
2019-Jun-09 13:53N 59°45' E 019°53'512.4
2019-Jun-09 13:28N 59°46' E 019°43'612.5
2019-Jun-09 13:00N 59°51' E 019°43'713.3
2019-Jun-09 12:30N 59°58' E 019°48'510.3
2019-Jun-09 12:00N 60°02' E 019°53'1 0.1
2019-Jun-09 02:18N 60°02' E 019°52'3 7.6
2019-Jun-09 01:54N 59°60' E 019°47'3 6.6
2019-Jun-09 01:31N 59°58' E 019°43'3 5.5
2019-Jun-09 01:00N 59°59' E 019°38'3 6.5
2019-Jun-09 00:30N 60°01' E 019°33'3 6.7
2019-Jun-09 00:00N 60°03' E 019°28'2 4.5
2019-Jun-08 23:30N 60°01' E 019°29'3 6.5
2019-Jun-08 23:00N 59°58' E 019°34'3 6.3
2019-Jun-08 22:30N 59°56' E 019°38'3 6.3
2019-Jun-08 22:00N 59°54' E 019°42'3 6.4
2019-Jun-08 21:30N 59°51' E 019°37'3 6.2
2019-Jun-08 20:59N 59°49' E 019°32'3 6.3
2019-Jun-08 20:30N 59°48' E 019°27'3 6.1
2019-Jun-08 20:00N 59°46' E 019°22'510.4
2019-Jun-08 19:30N 59°44' E 019°12'612.4
2019-Jun-08 18:59N 59°41' E 019°00'510.2
2019-Jun-08 18:30N 59°38' E 018°53'612.2
2019-Jun-08 18:00N 59°35' E 018°43'510.6
2019-Jun-08 17:30N 59°32' E 018°34'510.3
2019-Jun-08 16:59N 59°29' E 018°27'5 9.4
2019-Jun-08 16:30N 59°24' E 018°26'3 6.0
2019-Jun-08 16:00N 59°22' E 018°22'510.6
2019-Jun-08 15:31N 59°20' E 018°12'3 5.1
2019-Jun-08 15:00N 59°21' E 018°07'0 0.2
2019-Jun-08 14:30N 59°20' E 018°07'0 0.0
2019-Jun-08 14:00N 59°20' E 018°07'0 0.0
2019-Jun-08 13:30N 59°20' E 018°07'0 0.0
2019-Jun-08 13:00N 59°20' E 018°07'0 0.0
2019-Jun-08 12:30N 59°20' E 018°07'0 0.0
2019-Jun-08 12:00N 59°20' E 018°07'0 0.0
2019-Jun-08 11:30N 59°20' E 018°07'0 0.0
2019-Jun-08 11:00N 59°20' E 018°07'0 0.0
2019-Jun-08 10:30N 59°20' E 018°07'0 0.0
2019-Jun-08 10:00N 59°20' E 018°07'0 0.0
2019-Jun-08 09:30N 59°20' E 018°07'0 0.0
2019-Jun-08 09:00N 59°20' E 018°07'0 0.0
2019-Jun-08 08:30N 59°20' E 018°07'0 0.0
2019-Jun-08 08:00N 59°20' E 018°07'0 0.0
2019-Jun-08 07:30N 59°20' E 018°07'0 0.0
2019-Jun-08 07:00N 59°20' E 018°07'0 0.0
2019-Jun-08 06:30N 59°20' E 018°07'0 0.0
2019-Jun-08 06:00N 59°20' E 018°07'0 0.0
2019-Jun-08 05:30N 59°20' E 018°07'0 0.0
2019-Jun-08 05:00N 59°20' E 018°07'0 0.0
2019-Jun-08 04:30N 59°20' E 018°07'0 0.0
2019-Jun-08 04:00N 59°20' E 018°07'0 0.0
2019-Jun-08 03:30N 59°20' E 018°07'0 0.0
2019-Jun-08 03:00N 59°20' E 018°07'0 0.0
2019-Jun-08 02:30N 59°20' E 018°07'0 0.0
2019-Jun-08 02:00N 59°20' E 018°07'0 0.0
2019-Jun-08 01:30N 59°20' E 018°07'0 0.0
2019-Jun-08 01:00N 59°20' E 018°07'0 0.0
2019-Jun-08 00:30N 59°20' E 018°07'0 0.0
2019-Jun-08 00:00N 59°20' E 018°07'0 0.0
2019-Jun-07 23:30N 59°20' E 018°07'0 0.0
2019-Jun-07 23:00N 59°20' E 018°07'0 0.0
2019-Jun-07 22:30N 59°20' E 018°07'0 0.0
2019-Jun-07 22:00N 59°20' E 018°07'0 0.0
2019-Jun-07 21:30N 59°20' E 018°07'0 0.0
2019-Jun-07 21:00N 59°20' E 018°07'0 0.0
2019-Jun-07 20:30N 59°20' E 018°07'0 0.0
2019-Jun-07 20:00N 59°20' E 018°07'0 0.0
2019-Jun-07 19:30N 59°20' E 018°07'0 0.0
2019-Jun-07 19:00N 59°20' E 018°07'0 0.0
2019-Jun-07 18:30N 59°20' E 018°07'0 0.0
2019-Jun-07 18:00N 59°20' E 018°07'0 0.0
2019-Jun-07 17:30N 59°20' E 018°07'0 0.0
2019-Jun-07 17:00N 59°20' E 018°07'0 0.0
2019-Jun-07 16:30N 59°20' E 018°07'0 0.0
2019-Jun-07 16:00N 59°20' E 018°07'0 0.0
2019-Jun-07 15:30N 59°20' E 018°07'0 0.0
2019-Jun-07 15:00N 59°20' E 018°07'0 0.0
2019-Jun-07 14:30N 59°20' E 018°07'0 0.0
2019-Jun-07 14:00N 59°20' E 018°07'0 0.0
2019-Jun-07 13:30N 59°20' E 018°07'0 0.0
2019-Jun-07 13:00N 59°20' E 018°07'0 0.0
2019-Jun-07 12:30N 59°20' E 018°07'0 0.0
2019-Jun-07 12:00N 59°20' E 018°07'0 0.0
2019-Jun-07 11:30N 59°20' E 018°07'0 0.0
2019-Jun-07 11:00N 59°20' E 018°07'0 0.1
2019-Jun-07 10:30N 59°21' E 018°07'3 6.7
2019-Jun-07 10:00N 59°21' E 018°14'510.3
2019-Jun-07 09:30N 59°22' E 018°24'3 5.1
2019-Jun-07 09:00N 59°24' E 018°26'6 9.6
2019-Jun-07 08:24N 59°30' E 018°28'4 9.8
2019-Jun-07 08:00N 59°33' E 018°34'5 9.8
2019-Jun-07 07:30N 59°35' E 018°43'612.0
2019-Jun-07 07:00N 59°38' E 018°52'510.0
2019-Jun-07 06:30N 59°41' E 019°00'612.6
2019-Jun-07 06:00N 59°44' E 019°12'612.6
2019-Jun-07 05:30N 59°46' E 019°23'510.9
2019-Jun-07 05:00N 59°47' E 019°34'511.0
2019-Jun-07 04:30N 59°48' E 019°45'611.9
2019-Jun-07 04:00N 59°43' E 019°53'812.0
2019-Jun-07 03:19N 59°38' E 020°05'2511.6
2019-Jun-07 01:07N 59°32' E 020°54'212.5
2019-Jun-07 01:00N 59°32' E 020°57'612.4
2019-Jun-07 00:31N 59°30' E 021°08'611.7
2019-Jun-07 00:00N 59°28' E 021°19'612.0
2019-Jun-06 23:30N 59°27' E 021°31'612.4
2019-Jun-06 23:00N 59°28' E 021°43'612.6
2019-Jun-06 22:30N 59°28' E 021°56'612.7
2019-Jun-06 22:00N 59°28' E 022°08'612.1
2019-Jun-06 21:31N 59°28' E 022°20'612.4
2019-Jun-06 21:00N 59°32' E 022°30'612.7
2019-Jun-06 20:30N 59°33' E 022°42'612.6
2019-Jun-06 20:00N 59°35' E 022°54'612.4
2019-Jun-06 19:30N 59°37' E 023°06'612.7
2019-Jun-06 19:00N 59°38' E 023°18'612.6
2019-Jun-06 18:30N 59°40' E 023°30'612.4
2019-Jun-06 18:00N 59°42' E 023°42'612.5
2019-Jun-06 17:29N 59°43' E 023°54'612.8
2019-Jun-06 17:00N 59°45' E 024°06'613.0
2019-Jun-06 16:30N 59°47' E 024°18'612.3
2019-Jun-06 16:00N 59°50' E 024°29'612.2
2019-Jun-06 15:30N 59°53' E 024°39'612.6
2019-Jun-06 15:00N 59°57' E 024°49'612.0
2019-Jun-06 14:30N 60°01' E 024°57'611.4
2019-Jun-06 14:00N 60°07' E 024°59'3 5.6
2019-Jun-06 13:29N 60°10' E 024°58'0 0.0
2019-Jun-06 12:59N 60°10' E 024°58'0 0.0
2019-Jun-06 12:29N 60°10' E 024°58'0 0.0
2019-Jun-06 11:59N 60°10' E 024°58'0 0.0
2019-Jun-06 11:29N 60°10' E 024°58'0 0.0
2019-Jun-06 10:59N 60°10' E 024°58'0 0.0
2019-Jun-06 10:30N 60°10' E 024°58'0 0.0
2019-Jun-06 09:59N 60°10' E 024°58'0 0.0
2019-Jun-06 09:29N 60°10' E 024°58'0 0.0
2019-Jun-06 08:59N 60°10' E 024°58'0 0.0
2019-Jun-06 08:29N 60°10' E 024°58'0 0.0
2019-Jun-06 07:59N 60°10' E 024°58'0 0.0
2019-Jun-06 07:29N 60°10' E 024°58'0 0.5
2019-Jun-06 07:01N 60°10' E 024°58'5 9.1
2019-Jun-06 06:30N 60°05' E 024°58'611.4
2019-Jun-06 06:00N 59°60' E 024°59'510.1
2019-Jun-06 05:30N 59°56' E 025°06'612.3
2019-Jun-06 05:00N 59°56' E 025°18'612.3
2019-Jun-06 04:30N 59°55' E 025°31'612.2
2019-Jun-06 04:00N 59°55' E 025°43'612.3
2019-Jun-06 03:30N 59°57' E 025°55'712.4
2019-Jun-06 02:56N 59°58' E 026°08'512.1
2019-Jun-06 02:30N 59°60' E 026°19'612.2
2019-Jun-06 02:00N 60°01' E 026°30'611.9
2019-Jun-06 01:30N 60°01' E 026°42'  

Dump ship's entire track history